createdAt,value
2018-02-02T00:00:25.720Z,0.10
2018-02-02T00:02:51.980Z,0.20
2018-02-02T00:05:18.220Z,0.20
2018-02-02T00:07:44.481Z,0.20
2018-02-02T00:10:11.491Z,0.20
2018-02-02T00:12:37.727Z,0.20
2018-02-02T00:15:03.990Z,0.20
2018-02-02T00:17:30.944Z,0.20
2018-02-02T00:19:57.936Z,0.20
2018-02-02T00:22:24.189Z,0.10
2018-02-02T00:24:50.456Z,0.20
2018-02-02T00:27:17.400Z,0.10
2018-02-02T00:29:44.437Z,0.10
2018-02-02T00:32:11.403Z,0.10
2018-02-02T00:34:38.386Z,0.10
2018-02-02T00:37:04.613Z,0.10
2018-02-02T00:39:30.829Z,0.10
2018-02-02T00:41:57.080Z,0.10
2018-02-02T00:44:23.309Z,0.10
2018-02-02T00:46:49.579Z,0.20
2018-02-02T00:49:16.596Z,0.20
2018-02-02T00:51:48.828Z,0.10
2018-02-02T00:54:15.071Z,0.20
2018-02-02T00:56:41.327Z,0.20
2018-02-02T00:59:07.566Z,0.20
2018-02-02T01:01:33.819Z,0.20
2018-02-02T01:04:00.098Z,0.20
2018-02-02T01:06:26.326Z,0.20
2018-02-02T01:08:52.541Z,0.10
2018-02-02T01:11:18.790Z,0.20
2018-02-02T01:13:45.026Z,0.10
2018-02-02T01:16:11.337Z,0.10
2018-02-02T01:18:38.305Z,0.10
2018-02-02T01:21:04.564Z,0.00
2018-02-02T01:23:30.850Z,0.00
2018-02-02T01:25:57.079Z,-0.10
2018-02-02T01:28:23.388Z,-0.10
2018-02-02T01:30:50.362Z,-0.10
2018-02-02T01:33:16.596Z,-0.20
2018-02-02T01:35:42.826Z,-0.10
2018-02-02T01:38:09.054Z,0.10
2018-02-02T01:40:35.286Z,0.00
2018-02-02T01:43:01.531Z,0.00
2018-02-02T01:45:27.802Z,-0.10
2018-02-02T01:48:00.849Z,-0.30
2018-02-02T01:50:27.091Z,-0.40
2018-02-02T01:52:53.343Z,-0.40
2018-02-02T01:55:19.570Z,-0.40
2018-02-02T01:57:45.835Z,-0.40
2018-02-02T02:00:12.105Z,-0.40
2018-02-02T02:02:38.328Z,-0.40
2018-02-02T02:05:04.597Z,-0.50
2018-02-02T02:07:30.853Z,-0.50
2018-02-02T02:09:57.824Z,-0.50
2018-02-02T02:12:24.103Z,-0.50
2018-02-02T02:14:50.357Z,-0.50
2018-02-02T02:17:17.345Z,-0.30
2018-02-02T02:19:43.606Z,-0.40
2018-02-02T02:22:09.826Z,-0.30
2018-02-02T02:24:36.065Z,-0.30
2018-02-02T02:27:02.329Z,-0.30
2018-02-02T02:29:29.353Z,-0.40
2018-02-02T02:31:55.615Z,-0.40
2018-02-02T02:34:21.911Z,-0.40
2018-02-02T02:36:48.302Z,-0.40
2018-02-02T02:39:14.597Z,-0.40
2018-02-02T02:41:41.567Z,-0.20
2018-02-02T02:44:07.808Z,-0.30
2018-02-02T02:46:34.045Z,-0.20
2018-02-02T02:49:00.300Z,0.00
2018-02-02T02:51:26.532Z,0.00
2018-02-02T02:53:52.789Z,0.00
2018-02-02T02:56:19.801Z,0.10
2018-02-02T02:58:46.020Z,0.00
2018-02-02T03:01:12.282Z,0.10
2018-02-02T03:03:38.526Z,0.10
2018-02-02T03:06:05.504Z,0.30
2018-02-02T03:08:31.742Z,0.20
2018-02-02T03:10:57.964Z,0.30
2018-02-02T03:13:24.210Z,0.20
2018-02-02T03:15:50.464Z,0.10
2018-02-02T03:18:16.713Z,0.10
2018-02-02T03:20:42.982Z,0.10
2018-02-02T03:23:09.220Z,0.10
2018-02-02T03:25:35.433Z,0.20
2018-02-02T03:28:01.662Z,0.20
2018-02-02T03:30:27.934Z,0.20
2018-02-02T03:32:54.160Z,0.10
2018-02-02T03:35:20.393Z,0.20
2018-02-02T03:37:46.668Z,0.10
2018-02-02T03:40:12.902Z,0.10
2018-02-02T03:42:39.885Z,0.10
2018-02-02T03:45:06.104Z,0.10
2018-02-02T03:47:32.385Z,0.20
2018-02-02T03:49:58.635Z,0.20
2018-02-02T03:52:25.597Z,0.20
2018-02-02T03:54:51.886Z,0.10
2018-02-02T03:57:18.112Z,0.20
2018-02-02T03:59:44.393Z,0.20
2018-02-02T04:02:10.615Z,0.20
2018-02-02T04:04:37.597Z,0.20
2018-02-02T04:07:03.845Z,0.20
2018-02-02T04:09:30.876Z,0.20
2018-02-02T04:11:57.860Z,0.20
2018-02-02T04:14:24.147Z,0.20
2018-02-02T04:16:50.751Z,0.20
2018-02-02T04:19:21.142Z,0.20
2018-02-02T04:21:47.596Z,0.10
2018-02-02T04:24:13.867Z,0.20
2018-02-02T04:26:40.136Z,0.20
2018-02-02T04:29:06.392Z,0.10
2018-02-02T04:31:33.377Z,0.10
2018-02-02T04:34:00.794Z,0.10
2018-02-02T04:36:27.106Z,0.20
2018-02-02T04:38:53.347Z,0.20
2018-02-02T04:41:19.591Z,0.30
2018-02-02T04:43:45.892Z,0.20
2018-02-02T04:46:12.143Z,0.20
2018-02-02T04:48:38.434Z,0.20
2018-02-02T04:51:04.708Z,0.20
2018-02-02T04:53:30.937Z,0.30
2018-02-02T04:55:57.241Z,0.30
2018-02-02T04:58:23.500Z,0.30
2018-02-02T05:00:49.767Z,0.40
2018-02-02T05:03:16.077Z,0.40
2018-02-02T05:05:42.308Z,0.30
2018-02-02T05:08:09.316Z,0.30
2018-02-02T05:10:36.333Z,0.30
2018-02-02T05:13:02.628Z,0.30
2018-02-02T05:15:28.856Z,0.30
2018-02-02T05:17:55.153Z,0.20
2018-02-02T05:20:21.428Z,0.10
2018-02-02T05:22:48.388Z,0.00
2018-02-02T05:25:15.362Z,-0.10
2018-02-02T05:27:41.597Z,-0.10
2018-02-02T05:30:07.824Z,0.00
2018-02-02T05:32:34.109Z,0.00
2018-02-02T05:35:00.402Z,0.00
2018-02-02T05:37:26.633Z,0.10
2018-02-02T05:39:52.869Z,0.10
2018-02-02T05:42:19.093Z,0.10
2018-02-02T05:44:45.356Z,0.20
2018-02-02T05:47:11.595Z,0.20
2018-02-02T05:49:38.553Z,0.30
2018-02-02T05:52:05.562Z,0.20
2018-02-02T05:54:31.796Z,0.20
2018-02-02T05:56:58.797Z,0.10
2018-02-02T05:59:25.030Z,0.10
2018-02-02T06:01:51.273Z,0.00
2018-02-02T06:04:17.477Z,0.00
2018-02-02T06:06:43.721Z,-0.10
2018-02-02T06:09:09.972Z,-0.20
2018-02-02T06:11:36.217Z,-0.10
2018-02-02T06:14:02.485Z,-0.10
2018-02-02T06:16:29.493Z,-0.20
2018-02-02T06:18:55.699Z,-0.20
2018-02-02T06:21:21.973Z,-0.20
2018-02-02T06:23:48.220Z,-0.30
2018-02-02T06:26:15.208Z,-0.30
2018-02-02T06:28:41.429Z,-0.30
2018-02-02T06:31:07.728Z,-0.20
2018-02-02T06:33:34.739Z,-0.30
2018-02-02T06:36:00.951Z,-0.40
2018-02-02T06:38:27.207Z,-0.30
2018-02-02T06:40:53.444Z,-0.40
2018-02-02T06:43:19.667Z,-0.50
2018-02-02T06:45:46.046Z,-0.50
2018-02-02T06:48:12.293Z,-0.50
2018-02-02T06:50:38.565Z,-0.40
2018-02-02T06:53:04.817Z,-0.40
2018-02-02T06:55:31.785Z,-0.30
2018-02-02T06:57:58.054Z,-0.40
2018-02-02T07:00:24.293Z,-0.30
2018-02-02T07:02:50.559Z,-0.30
2018-02-02T07:05:17.504Z,-0.20
2018-02-02T07:07:44.493Z,-0.20
2018-02-02T07:10:10.777Z,-0.30
2018-02-02T07:12:37.017Z,-0.20
2018-02-02T07:15:04.024Z,-0.10
2018-02-02T07:17:30.261Z,-0.20
2018-02-02T07:19:56.472Z,-0.10
2018-02-02T07:22:22.728Z,-0.10
2018-02-02T07:24:49.031Z,-0.20
2018-02-02T07:27:15.256Z,-0.20
2018-02-02T07:29:41.484Z,-0.20
2018-02-02T07:32:07.745Z,-0.20
2018-02-02T07:34:34.030Z,-0.20
2018-02-02T07:37:00.334Z,-0.10
2018-02-02T07:39:27.422Z,0.00
2018-02-02T07:41:53.665Z,-0.10
2018-02-02T07:44:19.903Z,0.00
2018-02-02T07:46:46.143Z,0.00
2018-02-02T07:49:12.377Z,0.10
2018-02-02T07:51:38.632Z,0.10
2018-02-02T07:54:04.832Z,0.20
2018-02-02T07:56:31.077Z,0.20
2018-02-02T07:58:57.349Z,0.20
2018-02-02T08:01:24.310Z,0.30
2018-02-02T08:03:50.559Z,0.20
2018-02-02T08:06:16.812Z,0.40
2018-02-02T08:08:43.028Z,0.40
2018-02-02T08:11:09.261Z,0.50
2018-02-02T08:13:35.517Z,0.50
2018-02-02T08:16:01.752Z,0.50
2018-02-02T08:18:28.732Z,0.60
2018-02-02T08:20:55.034Z,0.60
2018-02-02T08:23:22.062Z,0.70
2018-02-02T08:25:48.298Z,0.60
2018-02-02T08:28:14.581Z,0.70
2018-02-02T08:30:40.858Z,0.80
2018-02-02T08:33:07.080Z,0.80
2018-02-02T08:35:33.361Z,0.80
2018-02-02T08:37:59.617Z,0.90
2018-02-02T08:40:25.866Z,0.90
2018-02-02T08:42:52.117Z,1.00
2018-02-02T08:45:18.355Z,1.00
2018-02-02T08:47:45.359Z,1.10
2018-02-02T08:50:11.616Z,1.10
2018-02-02T08:52:37.848Z,1.20
2018-02-02T08:55:04.089Z,1.30
2018-02-02T08:57:31.064Z,1.30
2018-02-02T08:59:57.317Z,1.30
2018-02-02T09:02:23.577Z,1.40
2018-02-02T09:04:49.824Z,1.50
2018-02-02T09:07:16.037Z,1.50
2018-02-02T09:09:42.279Z,1.50
2018-02-02T09:12:08.516Z,1.60
2018-02-02T09:14:34.777Z,1.60
2018-02-02T09:17:01.053Z,1.60
2018-02-02T09:19:27.322Z,1.60
2018-02-02T09:21:54.155Z,1.70
2018-02-02T09:24:21.157Z,1.80
2018-02-02T09:26:47.386Z,1.70
2018-02-02T09:29:13.596Z,1.80
2018-02-02T09:31:39.841Z,2.00
2018-02-02T09:34:06.063Z,2.10
2018-02-02T09:36:32.332Z,2.20
2018-02-02T09:38:58.610Z,2.30
2018-02-02T09:41:24.833Z,2.30
2018-02-02T09:43:51.840Z,2.40
2018-02-02T09:46:18.116Z,2.40
2018-02-02T09:48:44.368Z,2.60
2018-02-02T09:51:10.621Z,2.60
2018-02-02T09:53:36.878Z,2.60
2018-02-02T09:56:03.145Z,2.70
2018-02-02T09:58:29.428Z,2.80
2018-02-02T10:00:55.677Z,2.80
2018-02-02T10:03:21.941Z,2.90
2018-02-02T10:05:48.172Z,3.00
2018-02-02T10:08:14.448Z,3.00
2018-02-02T10:10:40.657Z,3.10
2018-02-02T10:13:06.897Z,3.20
2018-02-02T10:15:33.205Z,3.20
2018-02-02T10:17:59.431Z,3.30
2018-02-02T10:20:25.733Z,3.40
2018-02-02T10:22:52.732Z,3.30
2018-02-02T10:25:18.966Z,3.30
2018-02-02T10:27:45.231Z,3.30
2018-02-02T10:30:12.268Z,3.20
2018-02-02T10:32:38.530Z,3.10
2018-02-02T10:35:04.759Z,3.10
2018-02-02T10:37:31.028Z,3.10
2018-02-02T10:39:57.243Z,3.10
2018-02-02T10:42:23.515Z,3.10
2018-02-02T10:44:49.784Z,3.10
2018-02-02T10:47:16.024Z,3.20
2018-02-02T10:49:42.278Z,3.10
2018-02-02T10:52:08.549Z,3.10
2018-02-02T10:54:35.558Z,3.20
2018-02-02T10:57:01.832Z,3.20
2018-02-02T10:59:28.839Z,3.10
2018-02-02T11:02:01.074Z,3.00
2018-02-02T11:04:27.370Z,3.20
2018-02-02T11:06:53.653Z,3.20
2018-02-02T11:09:19.958Z,3.20
2018-02-02T11:11:47.010Z,3.20
2018-02-02T11:14:13.298Z,3.20
2018-02-02T11:16:39.549Z,3.20
2018-02-02T11:19:06.516Z,3.10
2018-02-02T11:21:33.528Z,3.20
2018-02-02T11:23:59.773Z,3.10
2018-02-02T11:26:26.740Z,3.20
2018-02-02T11:28:53.748Z,3.10
2018-02-02T11:31:19.991Z,3.10
2018-02-02T11:33:46.213Z,3.20
2018-02-02T11:36:12.550Z,3.20
2018-02-02T11:38:38.945Z,3.10
2018-02-02T11:41:05.229Z,3.00
2018-02-02T11:43:32.260Z,3.00
2018-02-02T11:45:58.540Z,3.00
2018-02-02T11:48:24.758Z,3.00
2018-02-02T11:50:51.713Z,3.00
2018-02-02T11:53:18.683Z,3.10
2018-02-02T11:55:44.963Z,3.00
2018-02-02T11:58:11.948Z,3.10
2018-02-02T12:00:38.232Z,3.10
2018-02-02T12:03:04.540Z,3.30
2018-02-02T12:05:30.800Z,3.40
2018-02-02T12:07:57.810Z,3.20
2018-02-02T12:10:24.069Z,3.20
2018-02-02T12:12:50.289Z,3.20
2018-02-02T12:15:17.280Z,3.30
2018-02-02T12:17:44.316Z,3.40
2018-02-02T12:20:11.357Z,3.40
2018-02-02T12:22:39.422Z,3.50
2018-02-02T12:25:14.594Z,3.40
2018-02-02T12:27:54.639Z,3.50
2018-02-02T12:30:27.591Z,3.40
2018-02-02T12:32:59.918Z,3.40
2018-02-02T12:35:32.217Z,3.40
2018-02-02T12:37:58.473Z,3.50
2018-02-02T12:40:24.782Z,3.40
2018-02-02T12:42:51.256Z,3.40
2018-02-02T12:45:18.308Z,3.80
2018-02-02T12:47:51.496Z,3.80
2018-02-02T12:50:17.748Z,3.70
2018-02-02T12:52:43.985Z,3.80
2018-02-02T12:55:10.289Z,3.90
2018-02-02T12:57:37.337Z,4.10
2018-02-02T13:00:03.620Z,4.10
2018-02-02T13:02:29.889Z,4.30
2018-02-02T13:04:56.249Z,4.40
2018-02-02T13:07:23.236Z,4.40
2018-02-02T13:09:49.519Z,4.40
2018-02-02T13:12:16.570Z,4.70
2018-02-02T13:14:43.567Z,4.70
2018-02-02T13:17:09.856Z,4.60
2018-02-02T13:19:36.865Z,4.70
2018-02-02T13:22:03.146Z,4.60
2018-02-02T13:24:29.405Z,4.50
2018-02-02T13:26:55.696Z,4.50
2018-02-02T13:29:22.728Z,4.60
2018-02-02T13:31:49.052Z,4.50
2018-02-02T13:34:16.103Z,4.70
2018-02-02T13:36:42.353Z,4.70
2018-02-02T13:39:09.322Z,4.00
2018-02-02T13:41:35.577Z,3.90
2018-02-02T13:44:01.905Z,3.80
2018-02-02T13:46:28.176Z,3.70
2018-02-02T13:48:54.786Z,3.50
2018-02-02T13:51:22.081Z,3.30
2018-02-02T13:53:49.258Z,3.20
2018-02-02T13:56:15.712Z,3.10
2018-02-02T13:58:42.231Z,3.10
2018-02-02T14:01:08.887Z,3.00
2018-02-02T14:03:35.342Z,3.00
2018-02-02T14:06:01.741Z,3.00
2018-02-02T14:08:28.183Z,3.00
2018-02-02T14:10:55.653Z,3.00
2018-02-02T14:13:23.834Z,3.20
2018-02-02T14:15:50.282Z,3.30
2018-02-02T14:18:16.868Z,3.50
2018-02-02T14:20:43.349Z,3.70
2018-02-02T14:23:09.875Z,3.90
2018-02-02T14:25:36.392Z,3.90
2018-02-02T14:28:02.825Z,3.80
2018-02-02T14:30:29.268Z,3.80
2018-02-02T14:32:55.673Z,4.00
2018-02-02T14:35:22.843Z,4.00
2018-02-02T14:37:49.345Z,4.00
2018-02-02T14:40:15.773Z,3.90
2018-02-02T14:42:42.369Z,3.70
2018-02-02T14:45:08.825Z,3.60
2018-02-02T14:47:35.262Z,3.40
2018-02-02T14:50:01.696Z,3.20
2018-02-02T14:52:28.217Z,3.00
2018-02-02T14:54:54.694Z,3.00
2018-02-02T14:57:21.452Z,3.10
2018-02-02T14:59:54.955Z,3.20
2018-02-02T15:02:22.113Z,3.20
2018-02-02T15:04:48.571Z,3.10
2018-02-02T15:07:15.210Z,3.10
2018-02-02T15:09:41.629Z,3.20
2018-02-02T15:12:08.041Z,3.10
2018-02-02T15:14:35.234Z,2.90
2018-02-02T15:17:01.681Z,2.90
2018-02-02T15:19:28.075Z,2.90
2018-02-02T15:21:54.674Z,3.00
2018-02-02T15:24:21.148Z,2.90
2018-02-02T15:26:48.307Z,2.70
2018-02-02T15:29:14.759Z,2.70
2018-02-02T15:31:41.200Z,2.70
2018-02-02T15:34:08.340Z,2.60
2018-02-02T15:36:35.189Z,2.60
2018-02-02T15:39:02.250Z,2.50
2018-02-02T15:41:28.742Z,2.50
2018-02-02T15:43:55.709Z,2.50
2018-02-02T15:46:21.944Z,2.50
2018-02-02T15:48:48.162Z,2.50
2018-02-02T15:51:15.179Z,2.30
2018-02-02T15:53:41.605Z,2.30
2018-02-02T15:56:08.073Z,2.30
2018-02-02T15:58:35.650Z,2.20
2018-02-02T16:01:02.958Z,2.10
2018-02-02T16:03:29.778Z,2.00
2018-02-02T16:05:56.282Z,2.00
2018-02-02T16:08:22.811Z,1.90
2018-02-02T16:10:49.784Z,1.80
2018-02-02T16:13:16.027Z,1.70
2018-02-02T16:15:42.405Z,1.70
2018-02-02T16:18:08.613Z,1.60
2018-02-02T16:20:34.854Z,1.60
2018-02-02T16:23:01.139Z,1.60
2018-02-02T16:25:27.406Z,1.60
2018-02-02T16:27:53.630Z,1.60
2018-02-02T16:30:19.874Z,1.60
2018-02-02T16:32:46.148Z,1.60
2018-02-02T16:35:12.379Z,1.60
2018-02-02T16:37:38.714Z,1.60
2018-02-02T16:40:05.959Z,1.60
2018-02-02T16:42:32.316Z,1.70
2018-02-02T16:44:58.599Z,1.70
2018-02-02T16:47:25.605Z,1.70
2018-02-02T16:49:51.922Z,1.70
2018-02-02T16:52:18.255Z,1.70
2018-02-02T16:54:44.561Z,1.70
2018-02-02T16:57:10.826Z,1.70
2018-02-02T16:59:37.135Z,1.70
2018-02-02T17:02:03.375Z,1.70
2018-02-02T17:04:29.688Z,1.70
2018-02-02T17:06:55.974Z,1.70
2018-02-02T17:09:22.373Z,1.70
2018-02-02T17:11:48.675Z,1.70
2018-02-02T17:14:16.188Z,1.70
2018-02-02T17:16:43.512Z,1.60
2018-02-02T17:19:11.620Z,1.80
2018-02-02T17:21:37.877Z,1.70
2018-02-02T17:24:04.882Z,1.90
2018-02-02T17:26:33.050Z,2.00
2018-02-02T17:29:02.932Z,2.00
2018-02-02T17:31:29.390Z,2.00
2018-02-02T17:33:55.657Z,2.10
2018-02-02T17:36:21.916Z,2.10
2018-02-02T17:38:49.332Z,2.10
2018-02-02T17:41:15.679Z,2.10
2018-02-02T17:43:42.375Z,2.10
2018-02-02T17:46:08.644Z,2.10
2018-02-02T17:48:34.952Z,2.00
2018-02-02T17:51:02.169Z,2.10
2018-02-02T17:53:28.504Z,2.00
2018-02-02T17:55:55.496Z,2.00
2018-02-02T17:58:21.722Z,2.00
2018-02-02T18:00:48.961Z,2.00
2018-02-02T18:03:15.223Z,2.00
2018-02-02T18:05:41.485Z,2.00
2018-02-02T18:08:08.569Z,2.00
2018-02-02T18:10:35.632Z,2.00
2018-02-02T18:13:01.882Z,2.00
2018-02-02T18:15:28.219Z,2.00
2018-02-02T18:17:54.497Z,2.00
2018-02-02T18:20:21.496Z,2.00
2018-02-02T18:22:47.831Z,1.90
2018-02-02T18:25:14.074Z,2.00
2018-02-02T18:27:40.356Z,1.90
2018-02-02T18:30:06.635Z,1.90
2018-02-02T18:32:32.941Z,1.90
2018-02-02T18:34:59.170Z,1.90
2018-02-02T18:37:25.429Z,1.90
2018-02-02T18:39:51.781Z,2.00
2018-02-02T18:42:18.872Z,1.90
2018-02-02T18:44:45.166Z,1.90
2018-02-02T18:47:12.161Z,2.00
2018-02-02T18:49:38.455Z,1.90
2018-02-02T18:52:05.425Z,2.00
2018-02-02T18:54:31.881Z,1.90
2018-02-02T18:56:58.116Z,2.00
2018-02-02T18:59:24.532Z,1.90
2018-02-02T19:01:50.821Z,1.90
2018-02-02T19:04:17.822Z,1.90
2018-02-02T19:06:44.074Z,1.90
2018-02-02T19:09:11.179Z,1.90
2018-02-02T19:11:37.709Z,1.90
2018-02-02T19:14:05.770Z,1.90
2018-02-02T19:16:34.288Z,1.90
2018-02-02T19:19:00.665Z,1.90
2018-02-02T19:21:26.948Z,1.90
2018-02-02T19:23:53.219Z,1.90
2018-02-02T19:26:19.503Z,1.80
2018-02-02T19:28:56.128Z,1.80
2018-02-02T19:31:28.056Z,1.70
2018-02-02T19:33:55.415Z,1.80
2018-02-02T19:36:21.961Z,1.70
2018-02-02T19:38:48.272Z,1.70
2018-02-02T19:41:14.534Z,1.70
2018-02-02T19:43:40.816Z,1.70
2018-02-02T19:46:07.097Z,1.60
2018-02-02T19:48:33.417Z,1.60
2018-02-02T19:50:59.652Z,1.60
2018-02-02T19:53:25.888Z,1.60
2018-02-02T19:55:52.200Z,1.60
2018-02-02T19:58:18.505Z,1.60
2018-02-02T20:00:44.739Z,1.60
2018-02-02T20:03:11.018Z,1.60
2018-02-02T20:05:37.277Z,1.60
2018-02-02T20:08:04.289Z,1.70
2018-02-02T20:10:30.532Z,1.70
2018-02-02T20:12:56.811Z,1.70
2018-02-02T20:15:23.068Z,1.70
2018-02-02T20:17:49.308Z,1.60
2018-02-02T20:20:15.589Z,1.60
2018-02-02T20:22:41.898Z,1.60
2018-02-02T20:25:08.412Z,1.60
2018-02-02T20:27:34.739Z,1.50
2018-02-02T20:30:01.042Z,1.50
2018-02-02T20:32:27.310Z,1.50
2018-02-02T20:34:53.718Z,1.50
2018-02-02T20:37:20.171Z,1.50
2018-02-02T20:39:47.265Z,1.50
2018-02-02T20:42:13.613Z,1.40
2018-02-02T20:44:40.032Z,1.50
2018-02-02T20:47:06.432Z,1.50
2018-02-02T20:49:32.720Z,1.50
2018-02-02T20:51:59.185Z,1.50
2018-02-02T20:54:25.617Z,1.50
2018-02-02T20:56:51.966Z,1.50
2018-02-02T20:59:18.459Z,1.50
2018-02-02T21:01:45.045Z,1.40
2018-02-02T21:04:12.118Z,1.40
2018-02-02T21:06:39.276Z,1.40
2018-02-02T21:09:06.622Z,1.50
2018-02-02T21:11:33.191Z,1.40
2018-02-02T21:13:59.584Z,1.50
2018-02-02T21:16:26.588Z,1.40
2018-02-02T21:18:53.059Z,1.40
2018-02-02T21:21:19.606Z,1.40
2018-02-02T21:23:46.662Z,1.50
2018-02-02T21:26:13.689Z,1.50
2018-02-02T21:28:40.010Z,1.50
2018-02-02T21:31:06.345Z,1.50
2018-02-02T21:33:32.621Z,1.50
2018-02-02T21:35:59.710Z,1.60
2018-02-02T21:38:26.038Z,1.50
2018-02-02T21:40:52.331Z,1.50
2018-02-02T21:43:18.618Z,1.60
2018-02-02T21:45:44.893Z,1.50
2018-02-02T21:48:11.921Z,1.50
2018-02-02T21:50:38.213Z,1.50
2018-02-02T21:53:04.507Z,1.50
2018-02-02T21:55:31.520Z,1.40
2018-02-02T21:57:57.825Z,1.40
2018-02-02T22:00:24.181Z,1.40
2018-02-02T22:02:50.746Z,1.40
2018-02-02T22:05:17.114Z,1.30
2018-02-02T22:07:43.431Z,1.30
2018-02-02T22:10:09.716Z,1.30
2018-02-02T22:12:35.944Z,1.30
2018-02-02T22:15:02.172Z,1.30
2018-02-02T22:17:28.426Z,1.30
2018-02-02T22:19:55.395Z,1.20
2018-02-02T22:22:22.603Z,1.20
2018-02-02T22:24:48.933Z,1.20
2018-02-02T22:27:15.256Z,1.30
2018-02-02T22:29:41.526Z,1.30
2018-02-02T22:32:08.560Z,1.30
2018-02-02T22:34:35.562Z,1.30
2018-02-02T22:37:01.825Z,1.30
2018-02-02T22:39:28.103Z,1.30
2018-02-02T22:41:54.350Z,1.30
2018-02-02T22:44:20.615Z,1.30
2018-02-02T22:46:47.565Z,1.30
2018-02-02T22:49:13.837Z,1.20
2018-02-02T22:51:40.072Z,1.30
2018-02-02T22:54:07.071Z,1.30
2018-02-02T22:56:33.338Z,1.20
2018-02-02T22:59:00.392Z,1.30
2018-02-02T23:01:27.365Z,1.30
2018-02-02T23:03:53.650Z,1.20
2018-02-02T23:06:19.988Z,1.20
2018-02-02T23:08:46.230Z,1.20
2018-02-02T23:11:13.195Z,1.10
2018-02-02T23:13:39.504Z,1.10
2018-02-02T23:16:06.502Z,1.10
2018-02-02T23:18:32.725Z,1.10
2018-02-02T23:20:58.979Z,1.20
2018-02-02T23:23:25.208Z,1.10
2018-02-02T23:25:51.497Z,1.10
2018-02-02T23:28:17.758Z,1.10
2018-02-02T23:30:44.044Z,1.10
2018-02-02T23:33:11.066Z,1.10
2018-02-02T23:35:37.309Z,1.00
2018-02-02T23:38:04.309Z,1.10
2018-02-02T23:40:30.588Z,1.10
2018-02-02T23:42:57.614Z,1.10
2018-02-02T23:45:23.849Z,1.00
2018-02-02T23:47:50.097Z,1.10
2018-02-02T23:50:17.129Z,1.10
2018-02-02T23:52:43.346Z,1.00
2018-02-02T23:55:09.628Z,1.00
2018-02-02T23:57:35.877Z,1.10
